createdAt,value
2022-12-27T00:00:15.430Z,5.11
2022-12-27T00:01:15.192Z,5.11
2022-12-27T00:02:15.117Z,5.04
2022-12-27T00:03:15.218Z,5.07
2022-12-27T00:04:15.454Z,5.07
2022-12-27T00:05:15.779Z,5.07
2022-12-27T00:06:15.556Z,5.07
2022-12-27T00:07:15.676Z,5.14
2022-12-27T00:08:15.335Z,5.14
2022-12-27T00:09:15.609Z,5.16
2022-12-27T00:10:15.238Z,5.15
2022-12-27T00:11:15.004Z,5.18
2022-12-27T00:12:14.954Z,5.15
2022-12-27T00:13:14.974Z,5.16
2022-12-27T00:14:14.977Z,5.18
2022-12-27T00:15:14.997Z,5.15
2022-12-27T00:16:14.991Z,5.16
2022-12-27T00:17:14.985Z,5.14
2022-12-27T00:18:14.943Z,5.14
2022-12-27T00:19:14.960Z,5.11
2022-12-27T00:20:14.972Z,5.11
2022-12-27T00:21:14.988Z,5.07
2022-12-27T00:22:15.000Z,5.11
2022-12-27T00:23:14.900Z,5.21
2022-12-27T00:24:15.019Z,5.25
2022-12-27T00:25:15.040Z,5.27
2022-12-27T00:26:14.863Z,5.25
2022-12-27T00:27:14.843Z,5.19
2022-12-27T00:28:14.857Z,5.15
2022-12-27T00:29:14.882Z,5.12
2022-12-27T00:30:14.883Z,5.06
2022-12-27T00:31:14.873Z,5.01
2022-12-27T00:32:14.836Z,5.06
2022-12-27T00:33:14.927Z,5.01
2022-12-27T00:34:14.829Z,4.98
2022-12-27T00:35:14.843Z,5.01
2022-12-27T00:36:14.847Z,4.97
2022-12-27T00:37:14.790Z,4.97
2022-12-27T00:38:14.767Z,5.04
2022-12-27T00:39:15.012Z,5.09
2022-12-27T00:40:14.919Z,5.11
2022-12-27T00:41:14.746Z,5.03
2022-12-27T00:42:14.775Z,5.01
2022-12-27T00:43:14.949Z,4.97
2022-12-27T00:44:14.899Z,4.93
2022-12-27T00:45:14.767Z,4.93
2022-12-27T00:46:14.803Z,4.88
2022-12-27T00:47:14.774Z,4.86
2022-12-27T00:48:14.731Z,4.78
2022-12-27T00:49:14.792Z,4.74
2022-12-27T00:50:14.799Z,4.74
2022-12-27T00:51:14.705Z,4.75
2022-12-27T00:52:14.715Z,4.74
2022-12-27T00:53:14.712Z,4.72
2022-12-27T00:54:14.986Z,4.69
2022-12-27T00:55:14.917Z,4.63
2022-12-27T00:56:15.063Z,4.59
2022-12-27T00:57:14.642Z,4.59
2022-12-27T00:58:14.656Z,4.66
2022-12-27T00:59:15.156Z,4.67
2022-12-27T01:00:15.172Z,4.71
2022-12-27T01:01:14.691Z,4.69
2022-12-27T01:02:15.270Z,4.66
2022-12-27T01:03:14.903Z,4.74
2022-12-27T01:04:15.209Z,4.77
2022-12-27T01:05:14.620Z,4.82
2022-12-27T01:06:15.252Z,4.75
2022-12-27T01:07:14.650Z,4.72
2022-12-27T01:08:14.959Z,4.71
2022-12-27T01:09:15.321Z,4.64
2022-12-27T01:10:15.302Z,4.67
2022-12-27T01:11:14.631Z,4.67
2022-12-27T01:12:14.762Z,4.71
2022-12-27T01:13:15.349Z,4.72
2022-12-27T01:14:15.217Z,4.72
2022-12-27T01:15:14.549Z,4.69
2022-12-27T01:16:14.655Z,4.71
2022-12-27T01:17:14.556Z,4.63
2022-12-27T01:18:14.668Z,4.63
2022-12-27T01:19:14.705Z,4.60
2022-12-27T01:20:14.566Z,4.64
2022-12-27T01:21:14.865Z,4.66
2022-12-27T01:22:14.898Z,4.67
2022-12-27T01:23:14.949Z,4.63
2022-12-27T01:24:14.846Z,4.63
2022-12-27T01:25:14.625Z,4.66
2022-12-27T01:26:14.506Z,4.69
2022-12-27T01:27:14.528Z,4.71
2022-12-27T01:28:14.586Z,4.71
2022-12-27T01:29:14.454Z,4.71
2022-12-27T01:30:14.680Z,4.66
2022-12-27T01:31:14.502Z,4.61
2022-12-27T01:32:14.566Z,4.63
2022-12-27T01:33:14.472Z,4.64
2022-12-27T01:34:14.482Z,4.69
2022-12-27T01:35:14.490Z,4.77
2022-12-27T01:36:14.528Z,4.88
2022-12-27T01:37:14.425Z,4.86
2022-12-27T01:38:14.530Z,4.86
2022-12-27T01:39:14.411Z,4.86
2022-12-27T01:40:14.553Z,4.82
2022-12-27T01:41:14.408Z,4.79
2022-12-27T01:42:14.414Z,4.78
2022-12-27T01:43:14.441Z,4.77
2022-12-27T01:44:14.612Z,4.82
2022-12-27T01:45:14.623Z,4.75
2022-12-27T01:46:14.389Z,4.78
2022-12-27T01:47:15.829Z,4.77
2022-12-27T01:48:14.331Z,4.71
2022-12-27T01:49:14.361Z,4.69
2022-12-27T01:50:14.403Z,4.71
2022-12-27T01:51:14.468Z,4.72
2022-12-27T01:52:14.489Z,4.69
2022-12-27T01:53:14.382Z,4.71
2022-12-27T01:54:14.297Z,4.69
2022-12-27T01:55:14.339Z,4.71
2022-12-27T01:56:14.456Z,4.72
2022-12-27T01:57:14.311Z,4.71
2022-12-27T01:58:14.604Z,4.71
2022-12-27T01:59:14.664Z,4.67
2022-12-27T02:00:14.278Z,4.71
2022-12-27T02:01:14.311Z,4.74
2022-12-27T02:02:14.404Z,4.74
2022-12-27T02:03:14.273Z,4.72
2022-12-27T02:04:14.322Z,4.74
2022-12-27T02:05:14.274Z,4.78
2022-12-27T02:06:14.408Z,4.74
2022-12-27T02:07:14.209Z,4.71
2022-12-27T02:08:14.307Z,4.72
2022-12-27T02:09:14.538Z,4.67
2022-12-27T02:10:14.253Z,4.72
2022-12-27T02:11:14.631Z,4.82
2022-12-27T02:12:14.792Z,4.78
2022-12-27T02:13:14.771Z,4.72
2022-12-27T02:14:14.606Z,4.77
2022-12-27T02:15:14.833Z,4.75
2022-12-27T02:16:14.140Z,4.75
2022-12-27T02:17:14.177Z,4.74
2022-12-27T02:18:14.173Z,4.72
2022-12-27T02:19:14.145Z,4.75
2022-12-27T02:20:14.152Z,4.75
2022-12-27T02:21:14.133Z,4.75
2022-12-27T02:22:14.162Z,4.74
2022-12-27T02:23:14.184Z,4.75
2022-12-27T02:24:14.179Z,4.77
2022-12-27T02:25:14.177Z,4.78
2022-12-27T02:26:14.167Z,4.85
2022-12-27T02:27:14.090Z,4.85
2022-12-27T02:28:14.180Z,4.78
2022-12-27T02:29:14.198Z,4.86
2022-12-27T02:30:14.216Z,4.86
2022-12-27T02:31:14.215Z,4.91
2022-12-27T02:32:14.247Z,4.94
2022-12-27T02:33:14.039Z,4.93
2022-12-27T02:34:14.053Z,4.97
2022-12-27T02:35:14.058Z,4.96
2022-12-27T02:36:14.030Z,4.93
2022-12-27T02:37:14.079Z,4.89
2022-12-27T02:38:14.077Z,4.91
2022-12-27T02:39:14.047Z,4.91
2022-12-27T02:40:14.077Z,4.96
2022-12-27T02:41:14.106Z,5.01
2022-12-27T02:42:14.112Z,4.97
2022-12-27T02:43:14.024Z,4.96
2022-12-27T02:44:14.137Z,5.00
2022-12-27T02:45:14.167Z,4.94
2022-12-27T02:46:17.206Z,4.89
2022-12-27T02:47:14.046Z,4.89
2022-12-27T02:48:13.995Z,4.88
2022-12-27T02:49:14.195Z,4.88
2022-12-27T02:50:13.953Z,4.93
2022-12-27T02:51:13.913Z,4.91
2022-12-27T02:52:14.053Z,4.91
2022-12-27T02:53:14.260Z,4.98
2022-12-27T02:54:14.270Z,4.97
2022-12-27T02:55:13.872Z,4.96
2022-12-27T02:56:14.142Z,5.01
2022-12-27T02:57:13.892Z,5.04
2022-12-27T02:58:14.329Z,5.11
2022-12-27T02:59:14.325Z,5.07
2022-12-27T03:00:14.295Z,5.09
2022-12-27T03:01:13.912Z,5.16
2022-12-27T03:02:14.074Z,5.15
2022-12-27T03:03:14.014Z,5.15
2022-12-27T03:04:14.009Z,5.15
2022-12-27T03:05:14.042Z,5.15
2022-12-27T03:06:14.111Z,5.15
2022-12-27T03:07:13.871Z,5.14
2022-12-27T03:08:14.089Z,5.09
2022-12-27T03:09:14.277Z,5.14
2022-12-27T03:10:13.789Z,5.11
2022-12-27T03:11:14.405Z,5.07
2022-12-27T03:12:14.118Z,5.11
2022-12-27T03:13:14.550Z,5.14
2022-12-27T03:14:13.885Z,5.12
2022-12-27T03:15:13.889Z,5.15
2022-12-27T03:16:13.954Z,5.14
2022-12-27T03:17:13.860Z,5.15
2022-12-27T03:18:13.905Z,5.16
2022-12-27T03:19:13.926Z,5.16
2022-12-27T03:20:13.984Z,5.12
2022-12-27T03:21:14.025Z,5.09
2022-12-27T03:22:14.075Z,5.04
2022-12-27T03:23:13.737Z,5.04
2022-12-27T03:24:13.879Z,5.04
2022-12-27T03:25:13.744Z,5.11
2022-12-27T03:26:14.273Z,5.11
2022-12-27T03:27:13.920Z,5.11
2022-12-27T03:28:13.676Z,5.11
2022-12-27T03:29:13.788Z,5.15
2022-12-27T03:30:13.992Z,5.19
2022-12-27T03:31:14.542Z,5.19
2022-12-27T03:32:13.933Z,5.16
2022-12-27T03:33:13.984Z,5.19
2022-12-27T03:34:14.262Z,5.19
2022-12-27T03:35:13.650Z,5.21
2022-12-27T03:36:14.547Z,5.22
2022-12-27T03:37:13.621Z,5.22
2022-12-27T03:38:14.341Z,5.21
2022-12-27T03:39:13.760Z,5.19
2022-12-27T03:40:14.420Z,5.18
2022-12-27T03:41:14.580Z,5.21
2022-12-27T03:42:13.659Z,5.29
2022-12-27T03:43:13.654Z,5.33
2022-12-27T03:44:13.789Z,5.32
2022-12-27T03:45:14.438Z,5.33
2022-12-27T03:46:14.409Z,5.30
2022-12-27T03:47:13.856Z,5.34
2022-12-27T03:48:13.837Z,5.29
2022-12-27T03:49:13.588Z,5.29
2022-12-27T03:50:13.564Z,5.29
2022-12-27T03:51:13.560Z,5.25
2022-12-27T03:52:13.548Z,5.24
2022-12-27T03:53:13.609Z,5.19
2022-12-27T03:54:13.658Z,5.18
2022-12-27T03:55:13.704Z,5.30
2022-12-27T03:56:13.757Z,5.30
2022-12-27T03:57:13.568Z,5.32
2022-12-27T03:58:13.559Z,5.30
2022-12-27T03:59:13.889Z,5.34
2022-12-27T04:00:13.513Z,5.37
2022-12-27T04:01:13.586Z,5.41
2022-12-27T04:02:13.600Z,5.43
2022-12-27T04:03:13.757Z,5.39
2022-12-27T04:04:14.131Z,5.48
2022-12-27T04:05:13.504Z,5.43
2022-12-27T04:06:13.734Z,5.43
2022-12-27T04:07:13.515Z,5.41
2022-12-27T04:08:14.051Z,5.40
2022-12-27T04:09:14.244Z,5.41
2022-12-27T04:10:13.773Z,5.48
2022-12-27T04:11:13.591Z,5.41
2022-12-27T04:12:13.821Z,5.44
2022-12-27T04:13:14.321Z,5.37
2022-12-27T04:14:14.220Z,5.36
2022-12-27T04:15:13.361Z,5.34
2022-12-27T04:16:14.049Z,5.36
2022-12-27T04:17:13.789Z,5.40
2022-12-27T04:18:14.367Z,5.34
2022-12-27T04:19:13.858Z,5.36
2022-12-27T04:20:14.053Z,5.34
2022-12-27T04:21:14.098Z,5.37
2022-12-27T04:22:13.360Z,5.32
2022-12-27T04:23:13.717Z,5.34
2022-12-27T04:24:14.056Z,5.37
2022-12-27T04:25:14.143Z,5.43
2022-12-27T04:26:13.340Z,5.44
2022-12-27T04:27:13.357Z,5.44
2022-12-27T04:28:13.308Z,5.43
2022-12-27T04:29:13.314Z,5.44
2022-12-27T04:30:13.379Z,5.43
2022-12-27T04:31:13.409Z,5.44
2022-12-27T04:32:13.305Z,5.50
2022-12-27T04:33:13.377Z,5.50
2022-12-27T04:34:13.246Z,5.43
2022-12-27T04:35:13.255Z,5.39
2022-12-27T04:36:13.254Z,5.37
2022-12-27T04:37:13.305Z,5.40
2022-12-27T04:38:13.273Z,5.39
2022-12-27T04:39:13.315Z,5.43
2022-12-27T04:40:13.242Z,5.44
2022-12-27T04:41:13.206Z,5.40
2022-12-27T04:42:13.253Z,5.44
2022-12-27T04:43:13.292Z,5.41
2022-12-27T04:44:13.208Z,5.40
2022-12-27T04:45:15.546Z,5.34
2022-12-27T04:46:13.525Z,5.41
2022-12-27T04:47:13.282Z,5.43
2022-12-27T04:48:13.172Z,5.36
2022-12-27T04:49:13.272Z,5.37
2022-12-27T04:50:13.157Z,5.37
2022-12-27T04:51:13.131Z,5.37
2022-12-27T04:52:13.136Z,5.41
2022-12-27T04:53:13.131Z,5.37
2022-12-27T04:54:13.145Z,5.36
2022-12-27T04:55:13.161Z,5.32
2022-12-27T04:56:13.178Z,5.33
2022-12-27T04:57:13.070Z,5.34
2022-12-27T04:58:13.059Z,5.36
2022-12-27T04:59:13.213Z,5.36
2022-12-27T05:00:13.141Z,5.37
2022-12-27T05:01:14.471Z,5.36
2022-12-27T05:02:13.192Z,5.37
2022-12-27T05:03:13.192Z,5.36
2022-12-27T05:04:13.070Z,5.39
2022-12-27T05:05:13.027Z,5.37
2022-12-27T05:06:13.021Z,5.39
2022-12-27T05:07:13.117Z,5.33
2022-12-27T05:08:13.160Z,5.40
2022-12-27T05:09:16.191Z,5.41
2022-12-27T05:10:13.268Z,5.43
2022-12-27T05:11:13.312Z,5.40
2022-12-27T05:12:13.208Z,5.40
2022-12-27T05:13:13.077Z,5.41
2022-12-27T05:14:13.085Z,5.39
2022-12-27T05:15:12.954Z,5.36
2022-12-27T05:16:13.259Z,5.39
2022-12-27T05:17:13.103Z,5.44
2022-12-27T05:18:13.004Z,5.39
2022-12-27T05:19:13.064Z,5.40
2022-12-27T05:20:13.073Z,5.43
2022-12-27T05:21:12.942Z,5.39
2022-12-27T05:22:12.972Z,5.39
2022-12-27T05:23:13.143Z,5.37
2022-12-27T05:24:12.962Z,5.43
2022-12-27T05:25:12.980Z,5.39
2022-12-27T05:26:12.931Z,5.39
2022-12-27T05:27:12.922Z,5.40
2022-12-27T05:28:12.945Z,5.44
2022-12-27T05:29:13.022Z,5.44
2022-12-27T05:30:12.897Z,5.47
2022-12-27T05:31:12.858Z,5.48
2022-12-27T05:32:13.761Z,5.50
2022-12-27T05:33:12.888Z,5.47
2022-12-27T05:34:12.958Z,5.51
2022-12-27T05:35:12.840Z,5.51
2022-12-27T05:36:12.888Z,5.55
2022-12-27T05:37:12.888Z,5.55
2022-12-27T05:38:12.884Z,5.51
2022-12-27T05:39:12.889Z,5.48
2022-12-27T05:40:13.118Z,5.48
2022-12-27T05:41:12.879Z,5.50
2022-12-27T05:42:12.911Z,5.47
2022-12-27T05:43:13.786Z,5.41
2022-12-27T05:44:12.939Z,5.43
2022-12-27T05:45:12.917Z,5.44
2022-12-27T05:46:13.201Z,5.47
2022-12-27T05:47:13.155Z,5.47
2022-12-27T05:48:12.929Z,5.51
2022-12-27T05:49:12.801Z,5.48
2022-12-27T05:50:13.085Z,5.47
2022-12-27T05:51:13.088Z,5.44
2022-12-27T05:52:13.137Z,5.41
2022-12-27T05:53:13.124Z,5.41
2022-12-27T05:54:12.954Z,5.51
2022-12-27T05:55:12.832Z,5.48
2022-12-27T05:56:13.055Z,5.50
2022-12-27T05:57:12.697Z,5.44
2022-12-27T05:58:12.707Z,5.50
2022-12-27T05:59:12.892Z,5.50
2022-12-27T06:00:12.910Z,5.54
2022-12-27T06:01:12.975Z,5.57
2022-12-27T06:02:12.948Z,5.57
2022-12-27T06:03:12.987Z,5.61
2022-12-27T06:04:13.026Z,5.66
2022-12-27T06:05:12.885Z,5.66
2022-12-27T06:06:12.898Z,5.65
2022-12-27T06:07:12.899Z,5.62
2022-12-27T06:08:12.798Z,5.67
2022-12-27T06:09:12.860Z,5.65
2022-12-27T06:10:12.919Z,5.67
2022-12-27T06:11:12.739Z,5.65
2022-12-27T06:12:12.891Z,5.66
2022-12-27T06:13:12.610Z,5.66
2022-12-27T06:14:12.881Z,5.72
2022-12-27T06:15:12.953Z,5.67
2022-12-27T06:16:13.047Z,5.65
2022-12-27T06:17:12.559Z,5.72
2022-12-27T06:18:12.681Z,5.67
2022-12-27T06:19:12.600Z,5.72
2022-12-27T06:20:12.584Z,5.76
2022-12-27T06:21:12.576Z,5.73
2022-12-27T06:22:12.688Z,5.76
2022-12-27T06:23:12.660Z,5.76
2022-12-27T06:24:12.617Z,5.75
2022-12-27T06:25:14.497Z,5.80
2022-12-27T06:26:12.562Z,5.79
2022-12-27T06:27:12.930Z,5.80
2022-12-27T06:28:13.245Z,5.79
2022-12-27T06:29:12.524Z,5.77
2022-12-27T06:30:12.492Z,5.79
2022-12-27T06:31:12.525Z,5.82
2022-12-27T06:32:12.526Z,5.84
2022-12-27T06:33:12.495Z,5.87
2022-12-27T06:34:12.784Z,5.87
2022-12-27T06:35:12.445Z,5.88
2022-12-27T06:36:12.564Z,5.94
2022-12-27T06:37:12.905Z,5.95
2022-12-27T06:38:12.916Z,5.91
2022-12-27T06:39:12.854Z,5.93
2022-12-27T06:40:12.785Z,5.93
2022-12-27T06:41:12.484Z,5.90
2022-12-27T06:42:12.883Z,5.90
2022-12-27T06:43:12.383Z,5.90
2022-12-27T06:44:12.564Z,5.90
2022-12-27T06:45:12.422Z,5.91
2022-12-27T06:46:17.153Z,5.91
2022-12-27T06:47:13.035Z,5.91
2022-12-27T06:48:12.781Z,5.88
2022-12-27T06:49:12.539Z,5.91
2022-12-27T06:50:12.914Z,5.87
2022-12-27T06:51:12.903Z,5.88
2022-12-27T06:52:12.313Z,5.91
2022-12-27T06:53:12.320Z,5.94
2022-12-27T06:54:12.360Z,5.95
2022-12-27T06:55:12.358Z,5.93
2022-12-27T06:56:12.370Z,5.93
2022-12-27T06:57:12.379Z,5.93
2022-12-27T06:58:12.346Z,5.93
2022-12-27T06:59:12.375Z,5.93
2022-12-27T07:00:12.379Z,5.94
2022-12-27T07:01:12.403Z,5.90
2022-12-27T07:02:12.476Z,5.93
2022-12-27T07:03:12.293Z,5.91
2022-12-27T07:04:12.286Z,5.91
2022-12-27T07:05:12.346Z,5.91
2022-12-27T07:06:12.448Z,5.94
2022-12-27T07:07:15.842Z,5.91
2022-12-27T07:08:12.210Z,5.90
2022-12-27T07:09:12.311Z,5.88
2022-12-27T07:10:12.257Z,5.90
2022-12-27T07:11:12.250Z,5.85
2022-12-27T07:12:12.283Z,5.85
2022-12-27T07:13:12.196Z,5.82
2022-12-27T07:14:12.207Z,5.87
2022-12-27T07:15:12.268Z,5.80
2022-12-27T07:16:12.222Z,5.84
2022-12-27T07:17:12.175Z,5.80
2022-12-27T07:18:12.578Z,5.82
2022-12-27T07:19:12.324Z,5.79
2022-12-27T07:20:12.669Z,5.82
2022-12-27T07:21:12.664Z,5.82
2022-12-27T07:22:12.123Z,5.85
2022-12-27T07:23:15.778Z,5.79
2022-12-27T07:24:12.698Z,5.82
2022-12-27T07:25:12.700Z,5.82
2022-12-27T07:26:12.071Z,5.88
2022-12-27T07:27:12.086Z,5.87
2022-12-27T07:28:12.100Z,5.84
2022-12-27T07:29:13.051Z,5.82
2022-12-27T07:30:12.103Z,5.85
2022-12-27T07:31:12.105Z,5.85
2022-12-27T07:32:12.038Z,5.85
2022-12-27T07:33:12.214Z,5.85
2022-12-27T07:34:12.129Z,5.85
2022-12-27T07:35:12.066Z,5.85
2022-12-27T07:36:12.316Z,5.84
2022-12-27T07:37:12.187Z,5.84
2022-12-27T07:38:12.401Z,5.80
2022-12-27T07:39:12.056Z,5.80
2022-12-27T07:40:12.445Z,5.79
2022-12-27T07:41:12.129Z,5.85
2022-12-27T07:42:12.508Z,5.87
2022-12-27T07:43:12.119Z,5.87
2022-12-27T07:44:12.461Z,5.88
2022-12-27T07:45:12.160Z,5.87
2022-12-27T07:46:12.048Z,5.87
2022-12-27T07:47:12.905Z,5.90
2022-12-27T07:48:11.968Z,5.95
2022-12-27T07:49:17.393Z,5.93
2022-12-27T07:50:11.960Z,5.93
2022-12-27T07:51:12.934Z,5.90
2022-12-27T07:52:12.920Z,5.88
2022-12-27T07:53:11.915Z,5.90
2022-12-27T07:54:12.273Z,5.88
2022-12-27T07:55:12.729Z,5.85
2022-12-27T07:56:12.086Z,5.87
2022-12-27T07:57:11.926Z,5.85
2022-12-27T07:58:11.984Z,5.87
2022-12-27T07:59:12.004Z,5.88
2022-12-27T08:00:11.881Z,5.87
2022-12-27T08:01:12.108Z,5.91
2022-12-27T08:02:12.274Z,5.93
2022-12-27T08:03:12.249Z,5.91
2022-12-27T08:04:12.152Z,5.95
2022-12-27T08:05:12.293Z,5.94
2022-12-27T08:06:11.900Z,5.94
2022-12-27T08:07:11.911Z,5.95
2022-12-27T08:08:11.833Z,5.90
2022-12-27T08:09:11.863Z,5.87
2022-12-27T08:10:11.920Z,5.88
2022-12-27T08:11:11.969Z,5.87
2022-12-27T08:12:12.007Z,5.80
2022-12-27T08:13:11.830Z,5.80
2022-12-27T08:14:12.100Z,5.82
2022-12-27T08:15:12.167Z,5.77
2022-12-27T08:16:11.887Z,5.82
2022-12-27T08:17:12.086Z,5.84
2022-12-27T08:18:11.907Z,5.84
2022-12-27T08:19:12.356Z,5.84
2022-12-27T08:20:12.387Z,5.87
2022-12-27T08:21:11.993Z,5.90
2022-12-27T08:22:11.754Z,5.88
2022-12-27T08:23:11.777Z,5.90
2022-12-27T08:24:11.907Z,5.90
2022-12-27T08:25:12.334Z,5.91
2022-12-27T08:26:11.708Z,5.93
2022-12-27T08:27:12.504Z,5.94
2022-12-27T08:28:12.045Z,5.97
2022-12-27T08:29:12.307Z,5.98
2022-12-27T08:30:11.848Z,6.00
2022-12-27T08:31:12.042Z,5.98
2022-12-27T08:32:11.735Z,5.98
2022-12-27T08:33:11.763Z,6.00
2022-12-27T08:34:11.645Z,6.00
2022-12-27T08:35:50.387Z,6.00
2022-12-27T08:36:29.243Z,6.02
2022-12-27T08:37:11.691Z,6.05
2022-12-27T08:38:12.431Z,6.08
2022-12-27T08:39:11.898Z,6.08
2022-12-27T08:40:12.496Z,6.08
2022-12-27T08:41:11.633Z,6.08
2022-12-27T08:42:11.804Z,6.08
2022-12-27T08:43:11.719Z,6.09
2022-12-27T08:44:11.645Z,6.09
2022-12-27T08:45:11.651Z,6.09
2022-12-27T08:46:11.661Z,6.08
2022-12-27T08:47:11.586Z,6.09
2022-12-27T08:48:11.620Z,6.08
2022-12-27T08:49:11.576Z,6.11
2022-12-27T08:50:11.581Z,6.11
2022-12-27T08:51:14.559Z,6.13
2022-12-27T08:52:11.553Z,6.15
2022-12-27T08:53:12.491Z,6.19
2022-12-27T08:54:11.561Z,6.18
2022-12-27T08:55:11.586Z,6.24
2022-12-27T08:56:11.599Z,6.19
2022-12-27T08:57:11.606Z,6.21
2022-12-27T08:58:16.089Z,6.27
2022-12-27T08:59:11.649Z,6.27
2022-12-27T09:00:11.634Z,6.27
2022-12-27T09:01:11.782Z,6.25
2022-12-27T09:02:11.601Z,6.24
2022-12-27T09:03:12.434Z,6.19
2022-12-27T09:04:11.455Z,6.16
2022-12-27T09:05:11.468Z,6.16
2022-12-27T09:06:11.740Z,6.12
2022-12-27T09:07:11.495Z,6.11
2022-12-27T09:08:11.496Z,6.11
2022-12-27T09:09:11.416Z,6.12
2022-12-27T09:10:11.406Z,6.09
2022-12-27T09:11:11.406Z,6.12
2022-12-27T09:12:11.385Z,6.12
2022-12-27T09:13:11.648Z,6.16
2022-12-27T09:14:11.456Z,6.15
2022-12-27T09:15:11.454Z,6.25
2022-12-27T09:16:11.413Z,6.21
2022-12-27T09:17:11.354Z,6.21
2022-12-27T09:18:11.379Z,6.19
2022-12-27T09:19:11.360Z,6.19
2022-12-27T09:20:11.383Z,6.16
2022-12-27T09:21:11.366Z,6.15
2022-12-27T09:22:11.398Z,6.15
2022-12-27T09:23:11.620Z,6.13
2022-12-27T09:24:11.330Z,6.19
2022-12-27T09:25:11.328Z,6.19
2022-12-27T09:26:11.310Z,6.18
2022-12-27T09:27:11.611Z,6.21
2022-12-27T09:28:11.423Z,6.21
2022-12-27T09:29:11.328Z,6.25
2022-12-27T09:30:11.340Z,6.28
2022-12-27T09:31:11.442Z,6.28
2022-12-27T09:32:11.243Z,6.25
2022-12-27T09:33:11.250Z,6.27
2022-12-27T09:34:11.541Z,6.27
2022-12-27T09:35:11.597Z,6.27
2022-12-27T09:36:11.247Z,6.31
2022-12-27T09:37:11.716Z,6.37
2022-12-27T09:38:11.203Z,6.42
2022-12-27T09:39:11.451Z,6.45
2022-12-27T09:40:11.312Z,6.42
2022-12-27T09:41:11.778Z,6.38
2022-12-27T09:42:47.759Z,6.42
2022-12-27T09:43:20.979Z,6.43
2022-12-27T09:44:11.699Z,6.43
2022-12-27T09:45:11.207Z,6.46
2022-12-27T09:46:11.351Z,6.43
2022-12-27T09:47:11.317Z,6.43
2022-12-27T09:48:11.711Z,6.42
2022-12-27T09:49:11.749Z,6.45
2022-12-27T09:50:11.919Z,6.46
2022-12-27T09:51:11.906Z,6.47
2022-12-27T09:52:11.929Z,6.47
2022-12-27T09:53:11.593Z,6.47
2022-12-27T09:54:11.280Z,6.49
2022-12-27T09:55:11.956Z,6.53
2022-12-27T09:56:11.366Z,6.49
2022-12-27T09:57:19.767Z,6.52
2022-12-27T09:58:11.111Z,6.53
2022-12-27T09:59:11.113Z,6.57
2022-12-27T10:00:11.164Z,6.57
2022-12-27T10:01:11.135Z,6.63
2022-12-27T10:02:11.173Z,6.61
2022-12-27T10:03:11.093Z,6.67
2022-12-27T10:04:11.180Z,6.65
2022-12-27T10:05:20.490Z,6.65
2022-12-27T10:06:11.059Z,6.65
2022-12-27T10:07:11.155Z,6.64
2022-12-27T10:08:11.087Z,6.65
2022-12-27T10:09:11.028Z,6.65
2022-12-27T10:10:11.193Z,6.67
2022-12-27T10:11:11.190Z,6.67
2022-12-27T10:12:11.222Z,6.65
2022-12-27T10:13:11.095Z,6.67
2022-12-27T10:14:11.229Z,6.68
2022-12-27T10:15:11.250Z,6.65
2022-12-27T10:16:11.362Z,6.70
2022-12-27T10:17:10.984Z,6.71
2022-12-27T10:18:11.277Z,6.83
2022-12-27T10:19:11.305Z,7.06
2022-12-27T10:20:11.320Z,7.24
2022-12-27T10:21:11.063Z,7.33
2022-12-27T10:22:10.939Z,7.37
2022-12-27T10:23:11.136Z,7.43
2022-12-27T10:24:11.381Z,7.52
2022-12-27T10:25:10.896Z,7.50
2022-12-27T10:26:11.033Z,7.52
2022-12-27T10:27:11.347Z,7.62
2022-12-27T10:28:11.424Z,7.68
2022-12-27T10:29:10.912Z,7.77
2022-12-27T10:30:10.908Z,7.83
2022-12-27T10:31:10.943Z,7.81
2022-12-27T10:32:11.004Z,7.81
2022-12-27T10:33:11.033Z,7.87
2022-12-27T10:34:11.127Z,7.84
2022-12-27T10:35:10.855Z,7.64
2022-12-27T10:36:10.833Z,7.78
2022-12-27T10:37:10.883Z,7.81
2022-12-27T10:38:11.004Z,7.86
2022-12-27T10:39:11.041Z,7.84
2022-12-27T10:40:10.981Z,7.83
2022-12-27T10:41:10.859Z,7.62
2022-12-27T10:42:11.191Z,7.61
2022-12-27T10:43:11.214Z,7.54
2022-12-27T10:44:10.870Z,7.60
2022-12-27T10:45:11.092Z,7.61
2022-12-27T10:46:11.393Z,7.60
2022-12-27T10:47:11.465Z,7.66
2022-12-27T10:48:11.451Z,7.55
2022-12-27T10:49:20.697Z,7.60
2022-12-27T10:50:11.506Z,7.62
2022-12-27T10:51:10.765Z,7.73
2022-12-27T10:52:11.675Z,7.58
2022-12-27T10:53:11.423Z,7.42
2022-12-27T10:54:10.743Z,7.43
2022-12-27T10:55:10.760Z,7.33
2022-12-27T10:56:11.151Z,7.40
2022-12-27T10:57:11.393Z,7.54
2022-12-27T10:58:10.800Z,7.50
2022-12-27T10:59:10.719Z,7.49
2022-12-27T11:00:10.887Z,7.54
2022-12-27T11:01:11.058Z,7.50
2022-12-27T11:02:11.824Z,7.40
2022-12-27T11:03:10.937Z,7.34
2022-12-27T11:04:16.131Z,7.39
2022-12-27T11:05:11.305Z,7.34
2022-12-27T11:06:10.641Z,7.47
2022-12-27T11:07:10.675Z,7.42
2022-12-27T11:08:10.620Z,7.43
2022-12-27T11:09:10.797Z,7.46
2022-12-27T11:10:10.847Z,7.46
2022-12-27T11:11:10.897Z,7.47
2022-12-27T11:12:10.614Z,7.50
2022-12-27T11:13:10.615Z,7.54
2022-12-27T11:14:10.605Z,7.50
2022-12-27T11:15:10.611Z,7.46
2022-12-27T11:16:10.621Z,7.46
2022-12-27T11:17:10.533Z,7.40
2022-12-27T11:18:10.649Z,7.33
2022-12-27T11:19:10.657Z,7.29
2022-12-27T11:20:10.572Z,7.31
2022-12-27T11:21:16.125Z,7.39
2022-12-27T11:22:10.553Z,7.39
2022-12-27T11:23:10.667Z,7.46
2022-12-27T11:24:10.653Z,7.52
2022-12-27T11:25:10.631Z,7.50
2022-12-27T11:26:10.763Z,7.54
2022-12-27T11:27:10.490Z,7.57
2022-12-27T11:28:10.769Z,7.55
2022-12-27T11:29:10.785Z,7.47
2022-12-27T11:30:10.794Z,7.43
2022-12-27T11:31:10.589Z,7.49
2022-12-27T11:32:10.825Z,7.50
2022-12-27T11:33:10.661Z,7.50
2022-12-27T11:34:10.596Z,7.46
2022-12-27T11:35:10.661Z,7.49
2022-12-27T11:36:10.411Z,7.49
2022-12-27T11:37:10.673Z,7.49
2022-12-27T11:38:10.890Z,7.50
2022-12-27T11:39:10.899Z,7.47
2022-12-27T11:40:10.385Z,7.46
2022-12-27T11:41:10.370Z,7.50
2022-12-27T11:42:10.939Z,7.49
2022-12-27T11:43:10.534Z,7.55
2022-12-27T11:44:10.985Z,7.60
2022-12-27T11:45:10.353Z,7.58
2022-12-27T11:46:10.440Z,7.61
2022-12-27T11:47:11.015Z,7.58
2022-12-27T11:48:10.440Z,7.55
2022-12-27T11:49:10.321Z,7.49
2022-12-27T11:50:10.324Z,7.50
2022-12-27T11:51:10.420Z,7.50
2022-12-27T11:52:10.443Z,7.52
2022-12-27T11:53:10.505Z,7.60
2022-12-27T11:54:10.313Z,7.61
2022-12-27T11:55:10.437Z,7.60
2022-12-27T11:56:10.496Z,7.62
2022-12-27T11:57:10.697Z,7.60
2022-12-27T11:58:10.576Z,7.55
2022-12-27T11:59:10.625Z,7.55
2022-12-27T12:00:10.608Z,7.55
2022-12-27T12:01:10.315Z,7.55
2022-12-27T12:02:10.881Z,7.58
2022-12-27T12:03:10.712Z,7.57
2022-12-27T12:04:10.693Z,7.49
2022-12-27T12:05:10.862Z,7.49
2022-12-27T12:06:11.000Z,7.46
2022-12-27T12:07:10.639Z,7.46
2022-12-27T12:08:10.966Z,7.44
2022-12-27T12:09:10.282Z,7.43
2022-12-27T12:10:10.258Z,7.40
2022-12-27T12:11:10.605Z,7.46
2022-12-27T12:12:10.357Z,7.42
2022-12-27T12:13:10.326Z,7.44
2022-12-27T12:14:10.338Z,7.46
2022-12-27T12:15:10.608Z,7.44
2022-12-27T12:16:11.083Z,7.43
2022-12-27T12:17:10.182Z,7.44
2022-12-27T12:18:10.183Z,7.42
2022-12-27T12:19:10.628Z,7.44
2022-12-27T12:20:10.195Z,7.43
2022-12-27T12:21:10.795Z,7.43
2022-12-27T12:22:10.133Z,7.40
2022-12-27T12:23:10.662Z,7.40
2022-12-27T12:24:10.132Z,7.42
2022-12-27T12:25:10.154Z,7.42
2022-12-27T12:26:10.140Z,7.43
2022-12-27T12:27:10.082Z,7.40
2022-12-27T12:28:38.491Z,7.44
2022-12-27T12:29:10.250Z,7.50
2022-12-27T12:30:10.293Z,7.54
2022-12-27T12:31:10.142Z,7.55
2022-12-27T12:32:10.390Z,7.58
2022-12-27T12:33:10.678Z,7.61
2022-12-27T12:34:10.173Z,7.62
2022-12-27T12:35:10.555Z,7.64
2022-12-27T12:36:10.391Z,7.68
2022-12-27T12:37:10.339Z,7.69
2022-12-27T12:38:10.174Z,7.69
2022-12-27T12:39:10.044Z,7.66
2022-12-27T12:40:10.018Z,7.77
2022-12-27T12:41:10.207Z,7.81
2022-12-27T12:42:10.143Z,7.81
2022-12-27T12:43:10.055Z,7.87
2022-12-27T12:44:10.355Z,7.91
2022-12-27T12:45:10.205Z,7.87
2022-12-27T12:46:10.500Z,7.84
2022-12-27T12:47:10.051Z,7.86
2022-12-27T12:48:10.577Z,7.86
2022-12-27T12:49:10.040Z,7.88
2022-12-27T12:50:13.634Z,7.87
2022-12-27T12:51:10.736Z,7.86
2022-12-27T12:52:10.496Z,7.86
2022-12-27T12:53:09.984Z,7.88
2022-12-27T12:54:10.208Z,7.88
2022-12-27T12:55:10.811Z,7.87
2022-12-27T12:56:10.555Z,7.87
2022-12-27T12:57:10.796Z,7.84
2022-12-27T12:58:10.774Z,7.80
2022-12-27T12:59:10.671Z,7.80
2022-12-27T13:00:10.525Z,7.77
2022-12-27T13:01:09.980Z,7.78
2022-12-27T13:02:10.062Z,7.81
2022-12-27T13:03:10.082Z,7.81
2022-12-27T13:04:09.883Z,7.80
2022-12-27T13:05:09.932Z,7.84
2022-12-27T13:06:09.994Z,7.87
2022-12-27T13:07:09.821Z,7.87
2022-12-27T13:08:09.848Z,7.98
2022-12-27T13:09:09.860Z,7.95
2022-12-27T13:10:10.066Z,7.98
2022-12-27T13:11:09.824Z,8.02
2022-12-27T13:12:09.881Z,8.04
2022-12-27T13:13:09.889Z,8.04
2022-12-27T13:14:09.924Z,8.06
2022-12-27T13:15:09.998Z,8.06
2022-12-27T13:16:09.844Z,8.12
2022-12-27T13:17:09.792Z,8.13
2022-12-27T13:18:09.957Z,8.09